Time;durP1;ratioP1;P1;durP2;ratioP2;P2;SDS_P1;SDS_P2;PMS_P1;PMS_P2;Temp;Humidity;BMP_temperature;BMP_pressure;BME280_temperature;BME280_humidity;BME280_pressure;Samples;Min_cycle;Max_cycle;Signal;HPM_P1;HPM_P2
2022/07/21 00:00:16;;;;;;;6.80;3.22;;;20.40;99.90;;;;;;4933770;29;20044;-54
2022/07/21 00:02:43;;;;;;;8.02;3.60;;;20.50;99.90;;;;;;4933357;29;20412;-54
2022/07/21 00:05:10;;;;;;;10.30;3.45;;;20.40;99.90;;;;;;4932912;29;20072;-53
2022/07/21 00:07:37;;;;;;;9.15;4.10;;;20.40;99.90;;;;;;4933066;29;20115;-55
2022/07/21 00:10:04;;;;;;;10.38;4.30;;;20.30;99.90;;;;;;4933009;29;20500;-52
2022/07/21 00:12:31;;;;;;;9.88;4.15;;;20.20;99.90;;;;;;4932029;29;20083;-54
2022/07/21 00:14:58;;;;;;;8.07;3.38;;;20.20;99.90;;;;;;4931571;29;20095;-54
2022/07/21 00:17:25;;;;;;;7.93;3.40;;;20.20;99.90;;;;;;4933010;29;20079;-52
2022/07/21 00:19:51;;;;;;;7.40;3.35;;;20.20;99.90;;;;;;4932728;29;20109;-53
2022/07/21 00:22:18;;;;;;;11.50;3.90;;;20.20;99.90;;;;;;4933127;29;20075;-54
2022/07/21 00:24:45;;;;;;;8.93;3.20;;;20.10;99.90;;;;;;4932878;29;20075;-51
2022/07/21 00:27:12;;;;;;;8.38;3.20;;;20.00;99.90;;;;;;4931828;29;20480;-52
2022/07/21 00:29:39;;;;;;;8.30;3.78;;;20.00;99.90;;;;;;4932995;29;20083;-52
2022/07/21 00:32:05;;;;;;;5.97;3.58;;;19.90;99.90;;;;;;4932433;29;20470;-54
2022/07/21 00:34:33;;;;;;;9.32;4.22;;;19.90;99.90;;;;;;4933038;29;20566;-54
2022/07/21 00:36:59;;;;;;;11.02;4.55;;;19.80;99.90;;;;;;4932620;29;20095;-54
2022/07/21 00:39:26;;;;;;;8.88;4.63;;;19.80;99.90;;;;;;4932697;29;20043;-54
2022/07/21 00:41:53;;;;;;;7.90;3.95;;;19.80;99.90;;;;;;4932447;29;20103;-55
2022/07/21 00:44:24;;;;;;;9.38;3.78;;;19.80;99.90;;;;;;4932301;29;20051;-53
2022/07/21 00:46:51;;;;;;;9.00;4.22;;;19.90;99.90;;;;;;4932201;29;20158;-53
2022/07/21 00:49:19;;;;;;;6.68;4.20;;;19.90;99.90;;;;;;4933079;29;20048;-53
2022/07/21 00:51:46;;;;;;;9.20;4.05;;;19.90;99.90;;;;;;4932288;29;20484;-53
2022/07/21 00:54:15;;;;;;;9.68;4.07;;;19.80;99.90;;;;;;4932492;29;20107;-54
2022/07/21 00:56:43;;;;;;;8.43;3.25;;;19.70;99.90;;;;;;4932176;29;20051;-55
2022/07/21 00:59:10;;;;;;;7.53;3.63;;;19.70;99.90;;;;;;4932085;29;20090;-52
2022/07/21 01:01:37;;;;;;;8.85;3.67;;;19.60;99.90;;;;;;4931549;29;20328;-51
2022/07/21 01:04:04;;;;;;;4.45;3.28;;;19.40;99.90;;;;;;4932349;29;20131;-55
2022/07/21 01:06:31;;;;;;;10.07;3.88;;;19.40;99.90;;;;;;4931960;29;20082;-53
2022/07/21 01:08:57;;;;;;;9.32;4.47;;;19.50;99.90;;;;;;4932679;29;20518;-55
2022/07/21 01:11:26;;;;;;;8.95;3.20;;;19.50;99.90;;;;;;4931947;29;20059;-55
2022/07/21 01:13:53;;;;;;;8.57;3.42;;;19.40;99.90;;;;;;4928653;29;20498;-55
2022/07/21 01:16:20;;;;;;;14.63;5.13;;;19.30;99.90;;;;;;4915132;29;20043;-54
2022/07/21 01:18:47;;;;;;;5.35;3.40;;;19.30;99.90;;;;;;4932059;29;20464;-54
2022/07/21 01:21:17;;;;;;;6.65;4.47;;;19.30;99.90;;;;;;4931887;29;20048;-53
2022/07/21 01:23:44;;;;;;;7.95;3.33;;;19.40;99.90;;;;;;4931621;29;20134;-52
2022/07/21 01:26:11;;;;;;;9.20;2.95;;;19.40;99.90;;;;;;4931453;29;20079;-54
2022/07/21 01:28:38;;;;;;;7.32;3.00;;;19.30;99.90;;;;;;4929817;29;20067;-53
2022/07/21 01:31:04;;;;;;;6.85;2.38;;;19.30;99.90;;;;;;4590091;28;10000302;-52
2022/07/21 01:33:31;;;;;;;6.43;2.50;;;19.30;99.90;;;;;;4924987;28;20322;-53
2022/07/21 01:35:58;;;;;;;6.13;2.60;;;19.30;99.90;;;;;;4931644;29;20044;-55
2022/07/21 01:41:34;;;;;;;5.65;2.40;;;19.40;99.90;;;;;;4913929;29;20052;-55
2022/07/21 01:44:06;;;;;;;8.02;2.97;;;19.40;99.90;;;;;;4931323;29;20139;-54
2022/07/21 01:46:43;;;;;;;7.90;2.90;;;19.50;99.90;;;;;;4931313;29;20047;-54
2022/07/21 01:49:10;;;;;;;4.68;2.72;;;19.60;99.90;;;;;;4932060;29;20091;-52
2022/07/21 01:51:37;;;;;;;8.20;2.38;;;19.50;99.90;;;;;;4931430;29;20072;-53
2022/07/21 01:54:06;;;;;;;6.95;3.03;;;19.30;99.90;;;;;;4931373;29;20087;-54
2022/07/21 01:56:33;;;;;;;11.02;3.42;;;19.10;99.90;;;;;;4930832;29;20522;-50
2022/07/21 01:59:00;;;;;;;6.90;3.00;;;19.00;99.90;;;;;;4930914;29;20047;-53
2022/07/21 02:01:28;;;;;;;8.35;2.75;;;19.00;99.90;;;;;;4931133;29;20076;-53
2022/07/21 02:03:56;;;;;;;7.43;3.25;;;19.10;99.90;;;;;;4929387;29;20143;-53
2022/07/21 02:06:23;;;;;;;11.02;3.08;;;19.10;99.90;;;;;;4930813;29;20075;-55
2022/07/21 02:08:50;;;;;;;7.88;3.00;;;19.00;99.90;;;;;;4930766;29;20071;-51
2022/07/21 02:11:17;;;;;;;7.57;2.85;;;19.00;99.90;;;;;;4929614;29;20520;-55
2022/07/21 02:13:44;;;;;;;6.32;2.70;;;18.70;99.90;;;;;;4930782;29;20144;-52
2022/07/21 02:16:11;;;;;;;4.80;3.15;;;18.70;99.90;;;;;;4931009;29;20068;-53
2022/07/21 02:18:38;;;;;;;11.85;3.35;;;18.80;99.90;;;;;;4930865;29;20051;-51
2022/07/21 02:21:05;;;;;;;10.55;2.72;;;18.80;99.90;;;;;;4929755;29;20082;-54
2022/07/21 02:23:32;;;;;;;6.25;2.75;;;18.80;99.90;;;;;;4930701;29;20087;-53
2022/07/21 02:25:59;;;;;;;7.85;3.20;;;18.90;99.90;;;;;;4930728;29;20044;-50
2022/07/21 02:28:26;;;;;;;17.30;3.55;;;18.90;99.90;;;;;;4930844;29;20550;-52
2022/07/21 02:30:54;;;;;;;7.15;3.38;;;18.90;99.90;;;;;;4930709;29;20087;-53
2022/07/21 02:33:21;;;;;;;8.18;2.83;;;18.80;99.90;;;;;;4930576;29;20078;-54
2022/07/21 02:35:48;;;;;;;7.47;2.55;;;18.80;99.90;;;;;;4929516;29;20043;-52
2022/07/21 02:38:15;;;;;;;6.57;2.92;;;18.80;99.90;;;;;;4930562;29;20122;-53
2022/07/21 02:40:41;;;;;;;9.43;3.33;;;18.80;99.90;;;;;;4930868;29;20075;-54
2022/07/21 02:43:08;;;;;;;12.65;3.17;;;18.80;99.90;;;;;;4930730;29;20082;-51
2022/07/21 02:45:36;;;;;;;5.72;2.92;;;18.80;99.90;;;;;;4921336;29;20075;-54
2022/07/21 02:48:06;;;;;;;10.10;2.80;;;18.80;99.90;;;;;;4930847;29;20059;-54
2022/07/21 02:50:35;;;;;;;6.13;2.67;;;18.90;99.90;;;;;;4930684;29;20048;-55
2022/07/21 02:53:04;;;;;;;9.55;3.53;;;19.00;99.90;;;;;;4930813;29;20496;-50
2022/07/21 02:55:32;;;;;;;10.38;2.70;;;18.90;99.90;;;;;;4927548;29;20302;-53
2022/07/21 02:58:23;;;;;;;9.10;3.13;;;18.90;99.90;;;;;;4930659;29;20047;-54
2022/07/21 03:01:01;;;;;;;6.55;2.80;;;18.80;99.90;;;;;;4928465;29;20048;-54
2022/07/21 03:03:33;;;;;;;9.10;2.47;;;18.80;99.90;;;;;;4930285;29;20055;-56
2022/07/21 03:06:00;;;;;;;8.90;2.90;;;18.80;99.90;;;;;;4930393;29;20051;-53
2022/07/21 03:08:27;;;;;;;9.10;3.40;;;18.90;99.90;;;;;;4930116;29;20044;-53
2022/07/21 03:10:54;;;;;;;7.20;2.80;;;19.00;99.90;;;;;;4930115;29;20090;-57
2022/07/21 03:13:21;;;;;;;7.22;3.25;;;19.10;99.90;;;;;;4929076;29;20051;-54
2022/07/21 03:15:48;;;;;;;10.27;3.17;;;19.10;99.90;;;;;;4930434;29;20440;-53
2022/07/21 03:18:15;;;;;;;6.90;3.25;;;19.00;99.90;;;;;;4930695;29;20052;-52
2022/07/21 03:20:42;;;;;;;5.88;2.50;;;18.80;99.90;;;;;;4930094;29;20416;-52
2022/07/21 03:23:09;;;;;;;11.00;3.17;;;18.70;99.90;;;;;;4930276;29;20078;-54
2022/07/21 03:25:36;;;;;;;5.88;2.72;;;18.70;99.90;;;;;;4930665;29;20051;-55
2022/07/21 03:28:03;;;;;;;7.20;2.33;;;18.70;99.90;;;;;;4930494;29;20051;-53
2022/07/21 03:30:30;;;;;;;6.00;2.33;;;18.60;99.90;;;;;;4930425;29;20052;-52
2022/07/21 03:32:56;;;;;;;9.93;2.83;;;18.60;99.90;;;;;;4930679;29;20044;-51
2022/07/21 03:35:23;;;;;;;9.73;3.22;;;18.60;99.90;;;;;;4930136;29;20411;-50
2022/07/21 03:37:52;;;;;;;6.72;2.63;;;18.70;99.90;;;;;;4929982;29;20083;-51
2022/07/21 03:40:22;;;;;;;9.25;2.78;;;18.60;99.90;;;;;;4930061;29;20099;-53
2022/07/21 03:42:50;;;;;;;7.30;2.67;;;18.70;99.90;;;;;;4930042;29;20047;-51
2022/07/21 03:45:17;;;;;;;10.25;3.90;;;18.70;99.90;;;;;;4928886;29;20044;-55
2022/07/21 03:47:44;;;;;;;6.25;2.90;;;18.70;99.90;;;;;;4932694;29;20048;-55
2022/07/21 03:50:14;;;;;;;5.78;2.92;;;18.80;99.90;;;;;;4933962;29;20063;-51
2022/07/21 03:52:42;;;;;;;12.45;3.17;;;18.70;99.90;;;;;;4932267;29;20103;-52
2022/07/21 03:55:09;;;;;;;10.57;3.10;;;18.70;99.90;;;;;;4933913;29;20510;-55
2022/07/21 03:57:46;;;;;;;10.95;3.47;;;18.70;99.90;;;;;;4933399;29;20111;-51
2022/07/21 04:00:37;;;;;;;10.18;3.20;;;18.70;99.90;;;;;;4931967;29;20052;-54
2022/07/21 04:03:04;;;;;;;9.40;3.40;;;18.70;99.90;;;;;;4929102;29;20040;-54
2022/07/21 04:05:31;;;;;;;11.52;3.25;;;18.60;99.90;;;;;;4933346;29;20111;-54
2022/07/21 04:07:58;;;;;;;9.27;3.60;;;18.70;99.90;;;;;;4933436;29;20115;-53
2022/07/21 04:10:30;;;;;;;7.95;3.13;;;18.70;99.90;;;;;;4933179;29;20043;-52
2022/07/21 04:12:57;;;;;;;5.97;2.95;;;18.70;99.90;;;;;;4932087;29;20071;-52
2022/07/21 04:15:24;;;;;;;5.43;3.22;;;18.60;99.90;;;;;;4933206;29;20483;-52
2022/07/21 04:17:51;;;;;;;6.00;2.60;;;18.70;99.90;;;;;;4933199;29;20110;-54
2022/07/21 04:20:18;;;;;;;7.45;2.75;;;18.70;99.90;;;;;;4933038;29;20044;-53
2022/07/21 04:22:45;;;;;;;13.95;3.33;;;18.70;99.90;;;;;;4932755;29;20047;-53
2022/07/21 04:25:12;;;;;;;7.18;2.63;;;18.60;99.90;;;;;;4933008;29;20048;-52
2022/07/21 04:27:39;;;;;;;5.57;2.53;;;18.70;99.90;;;;;;4932653;29;20048;-53
2022/07/21 04:30:08;;;;;;;10.43;2.30;;;18.70;99.90;;;;;;4933148;29;20043;-52
2022/07/21 04:32:34;;;;;;;9.93;2.08;;;18.70;99.90;;;;;;4931309;29;20044;-54
2022/07/21 04:35:02;;;;;;;5.40;2.25;;;18.80;99.90;;;;;;4932153;29;20056;-55
2022/07/21 04:37:30;;;;;;;10.40;2.80;;;18.70;99.90;;;;;;4930199;29;20276;-51
2022/07/21 04:39:57;;;;;;;6.13;2.15;;;18.80;99.90;;;;;;4932177;29;20087;-53
2022/07/21 04:42:24;;;;;;;9.65;2.47;;;18.80;99.90;;;;;;4932191;29;20107;-53
2022/07/21 04:44:51;;;;;;;9.20;2.50;;;18.80;99.90;;;;;;4932452;29;20052;-54
2022/07/21 04:47:18;;;;;;;7.57;2.13;;;18.80;99.90;;;;;;4932152;29;20107;-54
2022/07/21 04:49:45;;;;;;;7.60;2.10;;;18.80;99.90;;;;;;4932627;29;20087;-55
2022/07/21 04:52:11;;;;;;;7.22;2.83;;;18.80;99.90;;;;;;4932501;29;20130;-57
2022/07/21 04:54:38;;;;;;;7.18;2.25;;;18.80;99.90;;;;;;4932211;29;20060;-52
2022/07/21 04:57:05;;;;;;;11.98;2.95;;;18.70;99.90;;;;;;4932218;29;20368;-54
2022/07/21 04:59:33;;;;;;;9.65;2.50;;;18.80;99.90;;;;;;4931687;29;20484;-54
2022/07/21 05:02:00;;;;;;;6.85;2.05;;;18.80;99.90;;;;;;4931153;29;20050;-55
2022/07/21 05:04:27;;;;;;;5.97;2.15;;;18.70;99.90;;;;;;4931634;29;20043;-55
2022/07/21 05:06:54;;;;;;;6.28;2.40;;;18.80;99.90;;;;;;4932271;29;20061;-55
2022/07/21 05:09:21;;;;;;;14.57;2.35;;;18.80;99.90;;;;;;4931889;29;20456;-55
2022/07/21 05:11:47;;;;;;;10.98;2.03;;;18.80;99.90;;;;;;4931906;29;20467;-55
2022/07/21 05:14:14;;;;;;;9.63;2.92;;;18.90;99.90;;;;;;4932527;29;20087;-56
2022/07/21 05:16:42;;;;;;;12.88;2.25;;;19.00;99.90;;;;;;4932121;29;20102;-55
2022/07/21 05:19:10;;;;;;;12.45;1.85;;;18.90;99.90;;;;;;4931868;29;20225;-55
2022/07/21 05:21:37;;;;;;;7.97;2.35;;;18.90;99.90;;;;;;4932019;29;20479;-55
2022/07/21 05:24:04;;;;;;;7.28;2.08;;;18.90;99.90;;;;;;4931933;29;20043;-55
2022/07/21 05:26:31;;;;;;;11.55;2.20;;;18.90;99.90;;;;;;4931551;29;20099;-53
2022/07/21 05:28:57;;;;;;;7.18;1.90;;;18.80;99.90;;;;;;4931641;29;20087;-54
2022/07/21 05:31:24;;;;;;;8.82;3.47;;;18.80;99.90;;;;;;4931545;29;20047;-55
2022/07/21 05:33:51;;;;;;;9.20;2.38;;;18.80;99.90;;;;;;4921210;29;20491;-53
2022/07/21 05:36:18;;;;;;;11.27;2.60;;;18.80;99.90;;;;;;4931385;29;20043;-52
2022/07/21 05:38:46;;;;;;;5.05;2.10;;;18.70;99.90;;;;;;4931734;29;20051;-54
2022/07/21 05:41:13;;;;;;;6.47;1.80;;;18.70;99.90;;;;;;4931306;29;20130;-55
2022/07/21 05:43:40;;;;;;;12.63;2.22;;;18.80;99.90;;;;;;4931256;29;20115;-54
2022/07/21 05:46:07;;;;;;;5.57;1.95;;;18.80;99.90;;;;;;4931352;29;20098;-53
2022/07/21 05:48:34;;;;;;;6.85;2.25;;;18.90;99.90;;;;;;4932113;29;20048;-55
2022/07/21 05:51:01;;;;;;;7.35;2.53;;;18.80;99.90;;;;;;4930867;29;20048;-55
2022/07/21 05:53:27;;;;;;;4.80;1.85;;;19.00;99.90;;;;;;4931455;29;20132;-55
2022/07/21 05:55:55;;;;;;;5.75;2.20;;;19.00;99.90;;;;;;4930987;29;20120;-54
2022/07/21 05:58:25;;;;;;;10.48;2.30;;;19.00;99.90;;;;;;4928007;29;20168;-50
2022/07/21 06:03:39;;;;;;;5.70;1.58;;;18.90;99.90;;;;;;4931030;29;20116;-54
2022/07/21 06:06:06;;;;;;;5.63;1.95;;;18.80;99.90;;;;;;4930993;29;20059;-51
2022/07/21 06:08:33;;;;;;;5.75;1.92;;;18.90;99.90;;;;;;4929853;29;20083;-53
2022/07/21 06:11:00;;;;;;;7.60;2.60;;;19.00;99.90;;;;;;4930204;29;20043;-54
2022/07/21 06:13:27;;;;;;;7.63;2.50;;;18.90;99.90;;;;;;4930583;29;20151;-49
2022/07/21 06:15:54;;;;;;;8.23;2.05;;;19.00;99.90;;;;;;4930717;29;20083;-51
2022/07/21 06:18:21;;;;;;;10.75;2.35;;;19.00;99.90;;;;;;4931210;29;20313;-54
2022/07/21 06:20:50;;;;;;;5.57;1.95;;;19.20;99.90;;;;;;4930471;29;20097;-54
2022/07/21 06:23:17;;;;;;;10.30;2.60;;;19.20;99.90;;;;;;4930409;29;20079;-48
2022/07/21 06:25:44;;;;;;;7.43;2.55;;;19.30;99.90;;;;;;4929022;29;20091;-53
2022/07/21 06:28:11;;;;;;;15.27;2.53;;;19.20;99.90;;;;;;4930860;29;20044;-53
2022/07/21 06:30:37;;;;;;;3.78;1.75;;;19.20;99.90;;;;;;4930365;29;20105;-54
2022/07/21 06:33:04;;;;;;;7.97;2.40;;;19.30;99.90;;;;;;4930920;29;20072;-53
2022/07/21 06:35:31;;;;;;;9.63;2.40;;;19.40;99.90;;;;;;4930218;29;20324;-53
2022/07/21 06:37:58;;;;;;;7.40;2.17;;;19.40;99.90;;;;;;4930772;29;20079;-52
2022/07/21 06:40:25;;;;;;;6.60;2.92;;;19.50;99.90;;;;;;4913707;29;20055;-53
2022/07/21 06:42:52;;;;;;;6.35;2.15;;;19.70;99.90;;;;;;4930346;29;20047;-52
2022/07/21 06:45:39;;;;;;;11.00;2.50;;;19.70;99.90;;;;;;4922651;29;20059;-52
2022/07/21 06:48:07;;;;;;;5.75;2.53;;;19.70;99.90;;;;;;4926659;29;20147;-53
2022/07/21 06:50:34;;;;;;;9.63;2.28;;;19.50;99.90;;;;;;4925265;29;20139;-53
2022/07/21 06:53:02;;;;;;;6.63;2.40;;;19.60;99.90;;;;;;4927052;29;20054;-51
2022/07/21 06:55:28;;;;;;;8.90;3.20;;;19.70;99.90;;;;;;4925880;29;20543;-52
2022/07/21 06:57:55;;;;;;;11.50;3.17;;;19.70;99.90;;;;;;4926498;29;20448;-52
2022/07/21 07:00:22;;;;;;;6.82;2.65;;;19.70;99.90;;;;;;4928660;29;20044;-53
2022/07/21 07:02:49;;;;;;;7.95;2.67;;;19.80;99.90;;;;;;4930096;29;20142;-54
2022/07/21 07:05:16;;;;;;;8.57;2.38;;;19.80;99.90;;;;;;4929710;29;20475;-51
2022/07/21 07:07:43;;;;;;;5.07;2.80;;;19.80;99.90;;;;;;4928655;29;20103;-52
2022/07/21 07:10:11;;;;;;;11.10;2.72;;;19.90;99.90;;;;;;4929333;29;20539;-53
2022/07/21 07:12:38;;;;;;;10.00;3.08;;;20.00;99.90;;;;;;4928943;29;20052;-54
2022/07/21 07:15:25;;;;;;;9.23;3.10;;;20.10;99.90;;;;;;4929088;29;20058;-53
2022/07/21 07:17:52;;;;;;;8.23;3.40;;;20.20;99.90;;;;;;4920418;29;20062;-53
2022/07/21 07:20:19;;;;;;;8.45;2.90;;;20.30;99.90;;;;;;4929484;29;20051;-56
2022/07/21 07:22:46;;;;;;;10.00;3.15;;;20.30;99.90;;;;;;4931615;29;20151;-53
2022/07/21 07:25:16;;;;;;;11.30;2.65;;;20.40;99.90;;;;;;4932285;29;20495;-48
2022/07/21 07:27:49;;;;;;;6.57;3.15;;;20.40;99.90;;;;;;4932057;29;20098;-54
2022/07/21 07:30:16;;;;;;;8.80;3.13;;;20.50;99.90;;;;;;4929041;29;20495;-55
2022/07/21 07:32:43;;;;;;;15.93;2.97;;;20.60;99.90;;;;;;4933072;29;20044;-50
2022/07/21 07:35:10;;;;;;;13.43;3.50;;;20.60;99.90;;;;;;4931931;29;20083;-53
2022/07/21 07:37:38;;;;;;;12.75;4.03;;;20.60;99.90;;;;;;4931791;29;20118;-52
2022/07/21 07:40:07;;;;;;;7.82;3.42;;;20.70;99.90;;;;;;4933379;29;20087;-51
2022/07/21 07:42:35;;;;;;;12.73;3.60;;;20.80;99.90;;;;;;4932990;29;20063;-55
2022/07/21 07:45:03;;;;;;;9.75;3.65;;;20.80;99.90;;;;;;4933010;29;20455;-53
2022/07/21 07:47:30;;;;;;;11.05;3.40;;;20.90;99.90;;;;;;4933321;29;20047;-53
2022/07/21 07:49:57;;;;;;;10.32;3.85;;;20.90;99.90;;;;;;4932914;29;20039;-53
2022/07/21 07:52:23;;;;;;;12.70;3.95;;;20.90;99.90;;;;;;4933403;29;20166;-52
2022/07/21 07:54:50;;;;;;;8.73;3.95;;;21.00;99.90;;;;;;4929884;29;20460;-53
2022/07/21 07:57:17;;;;;;;11.98;3.53;;;21.00;99.90;;;;;;4933085;29;20047;-54
2022/07/21 07:59:44;;;;;;;8.02;3.47;;;20.90;99.90;;;;;;4932919;29;20052;-55
2022/07/21 08:02:11;;;;;;;10.18;3.13;;;20.80;99.90;;;;;;4932616;29;20087;-55
2022/07/21 08:04:40;;;;;;;10.52;3.80;;;20.90;99.90;;;;;;4932949;29;20126;-52
2022/07/21 08:07:08;;;;;;;8.43;3.03;;;21.00;99.90;;;;;;4933034;29;20051;-53
2022/07/21 08:09:35;;;;;;;11.55;3.50;;;21.00;99.90;;;;;;4932605;29;20059;-54
2022/07/21 08:12:02;;;;;;;10.68;3.50;;;21.10;99.90;;;;;;4931114;29;20107;-53
2022/07/21 08:14:28;;;;;;;7.68;2.83;;;21.30;99.90;;;;;;4932329;29;20091;-54
2022/07/21 08:16:58;;;;;;;13.70;3.58;;;21.40;99.90;;;;;;4932323;29;20091;-54
2022/07/21 08:19:26;;;;;;;8.95;2.78;;;21.40;99.90;;;;;;4932616;29;20043;-53
2022/07/21 08:21:53;;;;;;;7.45;3.50;;;21.50;99.70;;;;;;4932566;29;20079;-55
2022/07/21 08:24:38;;;;;;;10.65;2.58;;;21.60;99.80;;;;;;4931268;29;20086;-54
2022/07/21 08:27:05;;;;;;;9.77;3.08;;;21.70;99.40;;;;;;4932038;29;20075;-53
2022/07/21 08:29:32;;;;;;;7.70;3.70;;;21.80;99.50;;;;;;4932634;29;20085;-55
2022/07/21 08:31:59;;;;;;;13.82;4.40;;;21.90;99.20;;;;;;4931699;29;20288;-56
2022/07/21 08:34:27;;;;;;;7.80;3.33;;;21.90;98.90;;;;;;4930494;29;20056;-54
2022/07/21 08:36:54;;;;;;;10.50;3.75;;;22.00;98.90;;;;;;4932070;29;20191;-52
2022/07/21 08:39:21;;;;;;;9.27;2.97;;;22.10;98.70;;;;;;4931642;29;20511;-52
2022/07/21 08:41:47;;;;;;;5.20;2.70;;;22.10;98.30;;;;;;4932013;29;20079;-53
2022/07/21 08:44:19;;;;;;;10.63;3.28;;;22.20;98.40;;;;;;4932265;29;20131;-52
2022/07/21 08:46:49;;;;;;;8.73;3.33;;;22.30;98.30;;;;;;4930570;29;20103;-53
2022/07/21 08:49:16;;;;;;;11.25;3.13;;;22.40;97.80;;;;;;4932534;29;20503;-49
2022/07/21 08:51:43;;;;;;;22.13;4.10;;;22.40;97.50;;;;;;4930703;29;20531;-54
2022/07/21 08:54:09;;;;;;;13.02;2.67;;;22.30;97.50;;;;;;4931031;29;20106;-52
2022/07/21 08:56:36;;;;;;;8.32;4.03;;;22.30;97.70;;;;;;4932019;29;20150;-53
2022/07/21 08:59:05;;;;;;;9.82;2.88;;;22.50;97.70;;;;;;4932039;29;20106;-51
2022/07/21 09:01:32;;;;;;;9.48;3.35;;;22.60;97.60;;;;;;4931958;29;20098;-52
2022/07/21 09:04:19;;;;;;;15.85;4.57;;;22.80;97.10;;;;;;4931754;29;20452;-53
2022/07/21 09:06:53;;;;;;;10.32;2.83;;;22.90;96.10;;;;;;4931538;29;20075;-49
2022/07/21 09:09:21;;;;;;;12.50;3.33;;;23.00;96.20;;;;;;4932189;29;20079;-52
2022/07/21 09:11:48;;;;;;;10.07;3.28;;;23.00;95.30;;;;;;4932091;29;20130;-52
2022/07/21 09:14:18;;;;;;;9.30;3.03;;;22.90;96.20;;;;;;4931978;29;20205;-54
2022/07/21 09:16:46;;;;;;;9.38;3.42;;;23.00;96.10;;;;;;4923275;29;20472;-51
2022/07/21 09:19:21;;;;;;;6.82;2.35;;;23.00;95.30;;;;;;4931631;29;20048;-55
2022/07/21 09:21:49;;;;;;;9.85;3.28;;;22.80;95.20;;;;;;4931721;29;20080;-54
2022/07/21 09:24:28;;;;;;;9.95;3.97;;;22.80;95.60;;;;;;4931676;29;20090;-54
2022/07/21 09:27:17;;;;;;;13.00;3.22;;;22.70;94.90;;;;;;4931611;29;20178;-53
2022/07/21 09:29:45;;;;;;;7.95;3.10;;;22.60;95.50;;;;;;4931753;29;20475;-54
2022/07/21 09:32:13;;;;;;;9.48;3.47;;;22.70;95.50;;;;;;4929985;29;20491;-53
2022/07/21 09:34:40;;;;;;;6.85;2.95;;;23.00;95.50;;;;;;4931607;29;20082;-52
2022/07/21 09:37:07;;;;;;;11.68;3.85;;;23.10;95.00;;;;;;4931360;29;20048;-55
2022/07/21 09:39:44;;;;;;;10.07;3.47;;;23.20;95.10;;;;;;4927195;29;20087;-55
2022/07/21 09:42:28;;;;;;;8.15;3.08;;;23.40;94.80;;;;;;4926290;29;20058;-55
2022/07/21 09:45:00;;;;;;;10.55;2.95;;;23.60;94.10;;;;;;4930752;29;20479;-50
2022/07/21 09:47:29;;;;;;;9.43;3.20;;;23.70;93.60;;;;;;4931063;29;20095;-55
2022/07/21 09:49:56;;;;;;;6.35;2.85;;;23.70;93.70;;;;;;4930998;29;20502;-52
2022/07/21 09:52:44;;;;;;;7.15;3.25;;;23.70;93.60;;;;;;4931330;29;20062;-55
2022/07/21 09:55:12;;;;;;;11.15;4.35;;;23.90;93.10;;;;;;4931599;29;20056;-53
2022/07/21 09:57:40;;;;;;;9.07;4.30;;;24.00;92.60;;;;;;4930792;29;20579;-51
2022/07/21 10:00:08;;;;;;;21.25;3.28;;;24.10;92.40;;;;;;4931233;29;20118;-55
2022/07/21 10:02:44;;;;;;;7.80;3.17;;;24.20;92.20;;;;;;4931440;29;20048;-54
2022/07/21 10:05:16;;;;;;;5.38;2.92;;;24.40;91.60;;;;;;4930735;29;20119;-54
2022/07/21 10:07:45;;;;;;;9.20;4.03;;;24.60;91.10;;;;;;4927054;29;20043;-55
2022/07/21 10:10:12;;;;;;;7.10;3.72;;;24.80;91.00;;;;;;4931175;29;20047;-53
2022/07/21 10:12:39;;;;;;;10.13;3.72;;;25.10;89.60;;;;;;4930784;29;20056;-51
2022/07/21 10:15:06;;;;;;;10.25;3.33;;;25.30;89.70;;;;;;4930720;29;20094;-54
2022/07/21 10:17:33;;;;;;;13.10;3.75;;;25.50;89.90;;;;;;4930820;29;20413;-54
2022/07/21 10:20:21;;;;;;;5.40;3.22;;;25.90;87.90;;;;;;4930823;29;20162;-55
2022/07/21 10:23:09;;;;;;;9.45;2.92;;;26.20;83.80;;;;;;4920797;29;20507;-53
2022/07/21 10:25:46;;;;;;;6.65;3.65;;;26.40;79.70;;;;;;4930597;29;20051;-54
2022/07/21 10:28:27;;;;;;;7.70;3.40;;;26.30;83.60;;;;;;4944820;29;20075;-54
2022/07/21 10:30:55;;;;;;;10.55;3.47;;;25.90;79.20;;;;;;4930503;29;20107;-56
2022/07/21 10:33:44;;;;;;;5.60;2.97;;;25.70;84.30;;;;;;4930592;29;20067;-55
2022/07/21 10:36:27;;;;;;;4.18;2.47;;;26.10;83.00;;;;;;4929850;29;20044;-54
2022/07/21 10:39:06;;;;;;;8.27;4.13;;;26.40;83.20;;;;;;4929823;29;20473;-54
2022/07/21 10:41:37;;;;;;;7.70;2.65;;;26.80;77.40;;;;;;4930380;29;20083;-55
2022/07/21 10:44:26;;;;;;;5.95;3.20;;;27.10;78.40;;;;;;4930677;29;20126;-52
2022/07/21 10:47:04;;;;;;;5.22;2.75;;;27.00;75.00;;;;;;4922576;29;20087;-50
2022/07/21 10:49:47;;;;;;;9.23;2.85;;;26.60;72.70;;;;;;4929421;29;20051;-51
2022/07/21 10:52:36;;;;;;;10.70;4.15;;;26.40;76.30;;;;;;4930097;29;20087;-54
2022/07/21 10:55:28;;;;;;;8.90;2.75;;;26.50;76.10;;;;;;4920653;29;20047;-49
2022/07/21 10:58:16;;;;;;;7.50;2.78;;;26.50;74.50;;;;;;4933269;29;20048;-53
2022/07/21 11:00:56;;;;;;;9.35;3.83;;;26.30;75.60;;;;;;4933897;29;20103;-53
2022/07/21 11:03:26;;;;;;;9.52;3.22;;;26.40;77.00;;;;;;4947979;29;20525;-53
2022/07/21 11:06:06;;;;;;;12.45;3.58;;;26.40;77.60;;;;;;4933941;29;20495;-56
2022/07/21 11:08:37;;;;;;;12.50;4.10;;;26.40;76.00;;;;;;4934085;29;20047;-55
2022/07/21 11:11:15;;;;;;;10.45;3.40;;;26.30;77.00;;;;;;4934054;29;20079;-55
2022/07/21 11:14:01;;;;;;;8.73;3.17;;;26.30;76.10;;;;;;4934014;29;20044;-53
2022/07/21 11:17:04;;;;;;;7.85;3.30;;;26.30;75.70;;;;;;4592264;28;10000290;-54
2022/07/21 11:19:43;;;;;;;8.98;3.40;;;26.40;75.90;;;;;;4921287;29;20043;-54
2022/07/21 11:22:09;;;;;;;7.25;3.70;;;26.30;74.60;;;;;;4930684;29;20175;-54
2022/07/21 11:24:37;;;;;;;6.72;3.35;;;26.20;77.20;;;;;;4930674;29;20047;-56
2022/07/21 11:27:06;;;;;;;9.65;3.60;;;26.20;77.20;;;;;;4930243;29;20086;-53
2022/07/21 11:29:33;;;;;;;6.53;4.05;;;26.10;76.40;;;;;;4931474;29;20091;-53
2022/07/21 11:32:01;;;;;;;9.50;2.92;;;26.20;77.30;;;;;;4929405;29;20479;-53
2022/07/21 11:34:38;;;;;;;10.27;3.85;;;26.30;77.20;;;;;;4931178;29;20381;-55
2022/07/21 11:37:05;;;;;;;9.73;3.80;;;26.30;76.20;;;;;;4930792;29;20059;-55
2022/07/21 11:39:52;;;;;;;9.43;4.35;;;26.40;76.80;;;;;;4929915;29;20478;-55
2022/07/21 11:42:20;;;;;;;6.18;3.13;;;26.40;76.90;;;;;;4930321;29;20055;-55
2022/07/21 11:44:54;;;;;;;5.78;2.95;;;26.40;77.00;;;;;;4927564;29;20062;-54
2022/07/21 11:47:25;;;;;;;11.93;3.83;;;26.50;76.70;;;;;;4929204;29;20055;-53
2022/07/21 11:49:56;;;;;;;8.77;3.80;;;26.50;76.90;;;;;;4930680;29;20055;-56
2022/07/21 11:52:31;;;;;;;8.48;3.10;;;26.50;76.10;;;;;;4930721;29;20237;-54
2022/07/21 11:54:58;;;;;;;8.25;3.72;;;26.60;75.10;;;;;;4929896;29;20119;-53
2022/07/21 11:57:26;;;;;;;11.57;3.45;;;26.70;75.60;;;;;;4928592;29;20722;-55
2022/07/21 11:59:53;;;;;;;6.95;3.60;;;26.50;74.60;;;;;;4926898;29;20047;-53
2022/07/21 12:02:22;;;;;;;11.60;3.70;;;26.30;75.60;;;;;;4929393;29;20079;-52
2022/07/21 12:04:56;;;;;;;8.48;4.13;;;26.30;74.70;;;;;;4930384;29;20417;-55
2022/07/21 12:07:30;;;;;;;8.82;3.45;;;26.10;74.70;;;;;;4925637;29;20601;-53
2022/07/21 12:10:00;;;;;;;14.13;4.20;;;26.00;75.90;;;;;;4928055;29;20048;-54
2022/07/21 12:12:34;;;;;;;7.88;3.42;;;25.90;76.40;;;;;;4928505;29;20130;-54
2022/07/21 12:15:14;;;;;;;8.63;3.63;;;26.00;76.20;;;;;;4928692;29;20067;-55
2022/07/21 12:17:59;;;;;;;6.03;3.78;;;26.10;77.10;;;;;;4920507;29;20084;-55
2022/07/21 12:20:27;;;;;;;9.52;3.70;;;26.20;75.70;;;;;;4928960;29;20088;-51
2022/07/21 12:22:55;;;;;;;9.23;4.18;;;26.30;75.90;;;;;;4919989;29;20148;-53
2022/07/21 12:25:33;;;;;;;10.05;3.72;;;26.40;75.90;;;;;;4927468;29;20124;-54
2022/07/21 12:28:01;;;;;;;12.73;3.65;;;26.50;74.60;;;;;;4918604;29;20135;-52
2022/07/21 12:30:36;;;;;;;5.63;3.13;;;26.60;75.30;;;;;;4925030;29;20130;-54
2022/07/21 12:33:10;;;;;;;7.53;3.55;;;26.60;74.00;;;;;;4928439;29;20059;-53
2022/07/21 12:35:38;;;;;;;7.85;3.17;;;26.70;75.00;;;;;;4923734;29;20166;-54
2022/07/21 12:38:07;;;;;;;9.00;3.53;;;26.70;74.60;;;;;;4929554;29;20467;-53
2022/07/21 12:40:35;;;;;;;7.13;3.55;;;26.80;74.50;;;;;;4929494;29;20452;-52
2022/07/21 12:43:10;;;;;;;14.05;4.88;;;26.70;73.20;;;;;;4929925;29;20078;-55
2022/07/21 12:46:19;;;;;;;10.13;4.38;;;26.60;73.60;;;;;;4920068;29;20079;-52
2022/07/21 12:48:46;;;;;;;13.50;4.20;;;26.60;72.50;;;;;;4927568;29;20131;-53
2022/07/21 12:51:19;;;;;;;10.70;4.28;;;26.50;73.80;;;;;;4929760;29;20531;-55
2022/07/21 12:53:49;;;;;;;;;;;26.50;73.30;;;;;;4929948;29;20090;-53
2022/07/21 12:56:17;;;;;;;6.10;3.55;;;26.40;72.20;;;;;;4927135;29;20077;-55
2022/07/21 12:58:44;;;;;;;7.50;3.92;;;26.30;74.00;;;;;;4925178;29;20513;-55
2022/07/21 13:01:11;;;;;;;6.60;3.72;;;26.20;74.20;;;;;;4926960;29;20460;-53